sensor_id;sensor_type;location;lat;lon;timestamp;temperature;humidity
14995;DHT22;7593;49.006;8.372;2023-05-17T00:00:54;10.20;99.90
14995;DHT22;7593;49.006;8.372;2023-05-17T00:03:21;10.20;99.90
14995;DHT22;7593;49.006;8.372;2023-05-17T00:05:49;10.20;99.90
14995;DHT22;7593;49.006;8.372;2023-05-17T00:08:16;10.10;99.90
14995;DHT22;7593;49.006;8.372;2023-05-17T00:10:43;10.10;99.90
14995;DHT22;7593;49.006;8.372;2023-05-17T00:13:09;10.00;99.90
14995;DHT22;7593;49.006;8.372;2023-05-17T00:15:36;10.00;99.90
14995;DHT22;7593;49.006;8.372;2023-05-17T00:18:03;10.00;99.90
14995;DHT22;7593;49.006;8.372;2023-05-17T00:20:30;10.00;99.90
14995;DHT22;7593;49.006;8.372;2023-05-17T00:22:58;9.90;99.90
14995;DHT22;7593;49.006;8.372;2023-05-17T00:25:25;9.90;99.90
14995;DHT22;7593;49.006;8.372;2023-05-17T00:27:51;9.90;99.90
14995;DHT22;7593;49.006;8.372;2023-05-17T00:30:18;9.90;99.90
14995;DHT22;7593;49.006;8.372;2023-05-17T00:32:45;9.90;99.90
14995;DHT22;7593;49.006;8.372;2023-05-17T00:35:12;9.80;99.90
14995;DHT22;7593;49.006;8.372;2023-05-17T00:37:39;9.80;99.90
14995;DHT22;7593;49.006;8.372;2023-05-17T00:40:11;9.80;99.90
14995;DHT22;7593;49.006;8.372;2023-05-17T00:42:37;9.80;99.90
14995;DHT22;7593;49.006;8.372;2023-05-17T00:45:05;9.80;99.90
14995;DHT22;7593;49.006;8.372;2023-05-17T00:47:32;9.70;99.90
14995;DHT22;7593;49.006;8.372;2023-05-17T00:49:59;9.70;99.90
14995;DHT22;7593;49.006;8.372;2023-05-17T00:52:26;9.60;99.90
14995;DHT22;7593;49.006;8.372;2023-05-17T00:54:52;9.60;99.90
14995;DHT22;7593;49.006;8.372;2023-05-17T00:57:21;9.60;99.90
14995;DHT22;7593;49.006;8.372;2023-05-17T00:59:48;9.60;99.90
14995;DHT22;7593;49.006;8.372;2023-05-17T01:02:16;9.50;99.90
14995;DHT22;7593;49.006;8.372;2023-05-17T01:04:43;9.50;99.90
14995;DHT22;7593;49.006;8.372;2023-05-17T01:07:10;9.50;99.90
14995;DHT22;7593;49.006;8.372;2023-05-17T01:09:37;9.40;99.90
14995;DHT22;7593;49.006;8.372;2023-05-17T01:12:09;9.40;99.90
14995;DHT22;7593;49.006;8.372;2023-05-17T01:14:46;9.40;99.90
14995;DHT22;7593;49.006;8.372;2023-05-17T01:17:21;9.40;99.90
14995;DHT22;7593;49.006;8.372;2023-05-17T01:19:56;9.30;99.90
14995;DHT22;7593;49.006;8.372;2023-05-17T01:22:35;9.30;99.90
14995;DHT22;7593;49.006;8.372;2023-05-17T01:25:12;9.20;99.90
14995;DHT22;7593;49.006;8.372;2023-05-17T01:27:44;9.30;99.90
14995;DHT22;7593;49.006;8.372;2023-05-17T01:30:14;9.20;99.90
14995;DHT22;7593;49.006;8.372;2023-05-17T01:32:42;9.20;99.90
14995;DHT22;7593;49.006;8.372;2023-05-17T01:35:10;9.20;99.90
14995;DHT22;7593;49.006;8.372;2023-05-17T01:37:37;9.20;99.90
14995;DHT22;7593;49.006;8.372;2023-05-17T01:40:06;9.10;99.90
14995;DHT22;7593;49.006;8.372;2023-05-17T01:42:36;9.10;99.90
14995;DHT22;7593;49.006;8.372;2023-05-17T01:45:10;9.10;99.90
14995;DHT22;7593;49.006;8.372;2023-05-17T01:47:42;9.00;99.90
14995;DHT22;7593;49.006;8.372;2023-05-17T01:50:13;9.00;99.90
14995;DHT22;7593;49.006;8.372;2023-05-17T01:52:47;9.00;99.90
14995;DHT22;7593;49.006;8.372;2023-05-17T01:55:21;9.00;99.90
14995;DHT22;7593;49.006;8.372;2023-05-17T01:57:52;8.90;99.90
14995;DHT22;7593;49.006;8.372;2023-05-17T02:00:21;8.90;99.90
14995;DHT22;7593;49.006;8.372;2023-05-17T02:02:50;8.80;99.90
14995;DHT22;7593;49.006;8.372;2023-05-17T02:05:16;8.80;99.90
14995;DHT22;7593;49.006;8.372;2023-05-17T02:07:43;8.70;99.90
14995;DHT22;7593;49.006;8.372;2023-05-17T02:10:10;8.70;99.90
14995;DHT22;7593;49.006;8.372;2023-05-17T02:12:37;8.60;99.90
14995;DHT22;7593;49.006;8.372;2023-05-17T02:15:05;8.60;99.90
14995;DHT22;7593;49.006;8.372;2023-05-17T02:17:34;8.60;99.90
14995;DHT22;7593;49.006;8.372;2023-05-17T02:20:00;8.60;99.90
14995;DHT22;7593;49.006;8.372;2023-05-17T02:22:27;8.50;99.90
14995;DHT22;7593;49.006;8.372;2023-05-17T02:24:54;8.50;99.90
14995;DHT22;7593;49.006;8.372;2023-05-17T02:27:21;8.50;99.90
14995;DHT22;7593;49.006;8.372;2023-05-17T02:29:47;8.50;99.90
14995;DHT22;7593;49.006;8.372;2023-05-17T02:32:14;8.50;99.90
14995;DHT22;7593;49.006;8.372;2023-05-17T02:34:42;8.50;99.90
14995;DHT22;7593;49.006;8.372;2023-05-17T02:37:09;8.50;99.90
14995;DHT22;7593;49.006;8.372;2023-05-17T02:39:36;8.50;99.90
14995;DHT22;7593;49.006;8.372;2023-05-17T02:42:03;8.50;99.90
14995;DHT22;7593;49.006;8.372;2023-05-17T02:44:30;8.50;99.90
14995;DHT22;7593;49.006;8.372;2023-05-17T02:46:56;8.50;99.90
14995;DHT22;7593;49.006;8.372;2023-05-17T02:49:23;8.40;99.90
14995;DHT22;7593;49.006;8.372;2023-05-17T02:51:51;8.40;99.90
14995;DHT22;7593;49.006;8.372;2023-05-17T02:54:18;8.40;99.90
14995;DHT22;7593;49.006;8.372;2023-05-17T02:56:45;8.40;99.90
14995;DHT22;7593;49.006;8.372;2023-05-17T02:59:11;8.40;99.90
14995;DHT22;7593;49.006;8.372;2023-05-17T03:01:38;8.40;99.90
14995;DHT22;7593;49.006;8.372;2023-05-17T03:04:05;8.50;99.90
14995;DHT22;7593;49.006;8.372;2023-05-17T03:06:32;8.50;99.90
14995;DHT22;7593;49.006;8.372;2023-05-17T03:09:00;8.50;99.90
14995;DHT22;7593;49.006;8.372;2023-05-17T03:11:27;8.50;99.90
14995;DHT22;7593;49.006;8.372;2023-05-17T03:13:54;8.50;99.90
14995;DHT22;7593;49.006;8.372;2023-05-17T03:16:21;8.50;99.90
14995;DHT22;7593;49.006;8.372;2023-05-17T03:18:47;8.50;99.90
14995;DHT22;7593;49.006;8.372;2023-05-17T03:21:14;8.50;99.90
14995;DHT22;7593;49.006;8.372;2023-05-17T03:23:41;8.50;99.90
14995;DHT22;7593;49.006;8.372;2023-05-17T03:26:09;8.50;99.90
14995;DHT22;7593;49.006;8.372;2023-05-17T03:28:36;8.50;99.90
14995;DHT22;7593;49.006;8.372;2023-05-17T03:31:02;8.50;99.90
14995;DHT22;7593;49.006;8.372;2023-05-17T03:33:29;8.50;99.90
14995;DHT22;7593;49.006;8.372;2023-05-17T03:35:56;8.60;99.90
14995;DHT22;7593;49.006;8.372;2023-05-17T03:38:23;8.60;99.90
14995;DHT22;7593;49.006;8.372;2023-05-17T03:40:50;8.60;99.90
14995;DHT22;7593;49.006;8.372;2023-05-17T03:43:19;8.60;99.90
14995;DHT22;7593;49.006;8.372;2023-05-17T03:45:45;8.60;99.90
14995;DHT22;7593;49.006;8.372;2023-05-17T03:48:12;8.60;99.90
14995;DHT22;7593;49.006;8.372;2023-05-17T03:50:39;8.70;99.90
14995;DHT22;7593;49.006;8.372;2023-05-17T03:53:06;8.70;99.90
14995;DHT22;7593;49.006;8.372;2023-05-17T03:55:33;8.70;99.90
14995;DHT22;7593;49.006;8.372;2023-05-17T03:57:59;8.70;99.90
14995;DHT22;7593;49.006;8.372;2023-05-17T04:00:28;8.70;99.90
14995;DHT22;7593;49.006;8.372;2023-05-17T04:02:54;8.70;99.90
14995;DHT22;7593;49.006;8.372;2023-05-17T04:05:21;8.80;99.90
14995;DHT22;7593;49.006;8.372;2023-05-17T04:07:48;8.80;99.90
14995;DHT22;7593;49.006;8.372;2023-05-17T04:10:14;8.80;99.90
14995;DHT22;7593;49.006;8.372;2023-05-17T04:12:41;8.80;99.90
14995;DHT22;7593;49.006;8.372;2023-05-17T04:15:09;8.80;99.90
14995;DHT22;7593;49.006;8.372;2023-05-17T04:17:37;8.80;99.90
14995;DHT22;7593;49.006;8.372;2023-05-17T04:20:04;8.80;99.90
14995;DHT22;7593;49.006;8.372;2023-05-17T04:22:31;8.90;99.90
14995;DHT22;7593;49.006;8.372;2023-05-17T04:24:58;8.90;99.90
14995;DHT22;7593;49.006;8.372;2023-05-17T04:27:25;8.90;99.90
14995;DHT22;7593;49.006;8.372;2023-05-17T04:29:51;8.90;99.90
14995;DHT22;7593;49.006;8.372;2023-05-17T04:32:18;8.90;99.90
14995;DHT22;7593;49.006;8.372;2023-05-17T04:34:47;8.80;99.90
14995;DHT22;7593;49.006;8.372;2023-05-17T04:37:13;8.80;99.90
14995;DHT22;7593;49.006;8.372;2023-05-17T04:39:41;8.80;99.90
14995;DHT22;7593;49.006;8.372;2023-05-17T04:42:08;8.90;99.90
14995;DHT22;7593;49.006;8.372;2023-05-17T04:44:34;8.90;99.90
14995;DHT22;7593;49.006;8.372;2023-05-17T04:47:01;8.90;99.90
14995;DHT22;7593;49.006;8.372;2023-05-17T04:49:28;8.90;99.90
14995;DHT22;7593;49.006;8.372;2023-05-17T04:51:56;9.00;99.90
14995;DHT22;7593;49.006;8.372;2023-05-17T04:54:23;9.00;99.90
14995;DHT22;7593;49.006;8.372;2023-05-17T04:56:50;9.00;99.90
14995;DHT22;7593;49.006;8.372;2023-05-17T04:59:16;9.10;99.90
14995;DHT22;7593;49.006;8.372;2023-05-17T05:01:43;9.10;99.90
14995;DHT22;7593;49.006;8.372;2023-05-17T05:04:10;9.10;99.90
14995;DHT22;7593;49.006;8.372;2023-05-17T05:06:36;9.20;99.90
14995;DHT22;7593;49.006;8.372;2023-05-17T05:09:04;9.20;99.90
14995;DHT22;7593;49.006;8.372;2023-05-17T05:11:31;9.30;99.90
14995;DHT22;7593;49.006;8.372;2023-05-17T05:13:58;9.30;99.90
14995;DHT22;7593;49.006;8.372;2023-05-17T05:16:25;9.40;99.90
14995;DHT22;7593;49.006;8.372;2023-05-17T05:18:51;9.40;99.90
14995;DHT22;7593;49.006;8.372;2023-05-17T05:21:18;9.50;99.90
14995;DHT22;7593;49.006;8.372;2023-05-17T05:23:45;9.50;99.90
14995;DHT22;7593;49.006;8.372;2023-05-17T05:26:13;9.60;99.90
14995;DHT22;7593;49.006;8.372;2023-05-17T05:28:40;9.60;99.90
14995;DHT22;7593;49.006;8.372;2023-05-17T05:31:07;9.70;99.90
14995;DHT22;7593;49.006;8.372;2023-05-17T05:33:33;9.70;99.90
14995;DHT22;7593;49.006;8.372;2023-05-17T05:36:00;9.80;99.90
14995;DHT22;7593;49.006;8.372;2023-05-17T05:38:27;9.90;99.90
14995;DHT22;7593;49.006;8.372;2023-05-17T05:40:54;10.00;99.90
14995;DHT22;7593;49.006;8.372;2023-05-17T05:43:22;10.10;99.90
14995;DHT22;7593;49.006;8.372;2023-05-17T05:45:48;10.20;99.90
14995;DHT22;7593;49.006;8.372;2023-05-17T05:48:15;10.30;99.90
14995;DHT22;7593;49.006;8.372;2023-05-17T05:50:43;10.40;99.90
14995;DHT22;7593;49.006;8.372;2023-05-17T05:53:10;10.50;99.90
14995;DHT22;7593;49.006;8.372;2023-05-17T05:55:39;10.60;99.90
14995;DHT22;7593;49.006;8.372;2023-05-17T05:58:06;10.70;99.90
14995;DHT22;7593;49.006;8.372;2023-05-17T06:00:34;10.70;99.90
14995;DHT22;7593;49.006;8.372;2023-05-17T06:03:01;10.70;99.90
14995;DHT22;7593;49.006;8.372;2023-05-17T06:05:28;10.70;99.90
14995;DHT22;7593;49.006;8.372;2023-05-17T06:07:55;10.80;99.90
14995;DHT22;7593;49.006;8.372;2023-05-17T06:10:22;10.90;99.90
14995;DHT22;7593;49.006;8.372;2023-05-17T06:12:49;10.90;99.90
14995;DHT22;7593;49.006;8.372;2023-05-17T06:15:16;11.00;99.90
14995;DHT22;7593;49.006;8.372;2023-05-17T06:17:44;11.10;99.90
14995;DHT22;7593;49.006;8.372;2023-05-17T06:20:11;11.20;99.90
14995;DHT22;7593;49.006;8.372;2023-05-17T06:22:37;11.30;99.90
14995;DHT22;7593;49.006;8.372;2023-05-17T06:25:05;11.40;99.90
14995;DHT22;7593;49.006;8.372;2023-05-17T06:27:32;11.50;99.90
14995;DHT22;7593;49.006;8.372;2023-05-17T06:29:59;11.70;99.90
14995;DHT22;7593;49.006;8.372;2023-05-17T06:32:26;11.80;99.90
14995;DHT22;7593;49.006;8.372;2023-05-17T06:34:54;12.00;99.90
14995;DHT22;7593;49.006;8.372;2023-05-17T06:37:22;12.30;99.90
14995;DHT22;7593;49.006;8.372;2023-05-17T06:39:50;12.50;99.90
14995;DHT22;7593;49.006;8.372;2023-05-17T06:42:17;12.60;99.90
14995;DHT22;7593;49.006;8.372;2023-05-17T06:44:44;12.70;99.90
14995;DHT22;7593;49.006;8.372;2023-05-17T06:47:10;12.70;99.90
14995;DHT22;7593;49.006;8.372;2023-05-17T06:49:37;12.70;99.90
14995;DHT22;7593;49.006;8.372;2023-05-17T06:52:05;12.60;99.90
14995;DHT22;7593;49.006;8.372;2023-05-17T06:54:32;12.60;99.90
14995;DHT22;7593;49.006;8.372;2023-05-17T06:56:59;12.80;99.90
14995;DHT22;7593;49.006;8.372;2023-05-17T06:59:26;13.20;99.90
14995;DHT22;7593;49.006;8.372;2023-05-17T07:01:54;13.60;99.90
14995;DHT22;7593;49.006;8.372;2023-05-17T07:04:20;14.00;99.90
14995;DHT22;7593;49.006;8.372;2023-05-17T07:06:47;14.70;99.90
14995;DHT22;7593;49.006;8.372;2023-05-17T07:09:15;15.00;99.90
14995;DHT22;7593;49.006;8.372;2023-05-17T07:11:42;15.20;99.90
14995;DHT22;7593;49.006;8.372;2023-05-17T07:14:09;15.30;99.90
14995;DHT22;7593;49.006;8.372;2023-05-17T07:16:35;15.40;99.90
14995;DHT22;7593;49.006;8.372;2023-05-17T07:19:02;15.40;99.90
14995;DHT22;7593;49.006;8.372;2023-05-17T07:21:29;15.30;99.90
14995;DHT22;7593;49.006;8.372;2023-05-17T07:23:56;15.30;99.90
14995;DHT22;7593;49.006;8.372;2023-05-17T07:26:24;15.20;99.90
14995;DHT22;7593;49.006;8.372;2023-05-17T07:28:51;15.40;99.90
14995;DHT22;7593;49.006;8.372;2023-05-17T07:31:17;15.60;99.90
14995;DHT22;7593;49.006;8.372;2023-05-17T07:33:44;15.50;99.90
14995;DHT22;7593;49.006;8.372;2023-05-17T07:36:11;15.30;99.90
14995;DHT22;7593;49.006;8.372;2023-05-17T07:38:38;15.00;99.90
14995;DHT22;7593;49.006;8.372;2023-05-17T07:41:06;14.60;99.90
14995;DHT22;7593;49.006;8.372;2023-05-17T07:43:35;14.70;99.90
14995;DHT22;7593;49.006;8.372;2023-05-17T07:46:02;14.80;99.90
14995;DHT22;7593;49.006;8.372;2023-05-17T07:48:29;14.80;99.90
14995;DHT22;7593;49.006;8.372;2023-05-17T07:50:56;14.60;99.90
14995;DHT22;7593;49.006;8.372;2023-05-17T07:53:23;14.40;99.90
14995;DHT22;7593;49.006;8.372;2023-05-17T07:55:49;14.30;99.90
14995;DHT22;7593;49.006;8.372;2023-05-17T07:58:16;14.30;99.90
14995;DHT22;7593;49.006;8.372;2023-05-17T08:00:44;14.50;99.90
14995;DHT22;7593;49.006;8.372;2023-05-17T08:03:11;14.70;99.90
14995;DHT22;7593;49.006;8.372;2023-05-17T08:05:38;14.90;99.90
14995;DHT22;7593;49.006;8.372;2023-05-17T08:08:05;15.20;99.90
14995;DHT22;7593;49.006;8.372;2023-05-17T08:10:32;15.70;99.90
14995;DHT22;7593;49.006;8.372;2023-05-17T08:12:59;16.00;99.90
14995;DHT22;7593;49.006;8.372;2023-05-17T08:15:25;16.30;99.90
14995;DHT22;7593;49.006;8.372;2023-05-17T08:17:53;16.50;99.90
14995;DHT22;7593;49.006;8.372;2023-05-17T08:20:20;16.80;99.90
14995;DHT22;7593;49.006;8.372;2023-05-17T08:22:47;16.90;99.90
14995;DHT22;7593;49.006;8.372;2023-05-17T08:25:14;16.80;99.90
14995;DHT22;7593;49.006;8.372;2023-05-17T08:27:40;16.60;99.90
14995;DHT22;7593;49.006;8.372;2023-05-17T08:30:08;16.30;99.90
14995;DHT22;7593;49.006;8.372;2023-05-17T08:32:34;16.10;99.90
14995;DHT22;7593;49.006;8.372;2023-05-17T08:35:03;16.00;99.90
14995;DHT22;7593;49.006;8.372;2023-05-17T08:37:30;16.10;99.90
14995;DHT22;7593;49.006;8.372;2023-05-17T08:39:57;16.10;99.90
14995;DHT22;7593;49.006;8.372;2023-05-17T08:42:24;16.10;99.90
14995;DHT22;7593;49.006;8.372;2023-05-17T08:44:51;15.90;99.90
14995;DHT22;7593;49.006;8.372;2023-05-17T08:47:20;15.80;99.90
14995;DHT22;7593;49.006;8.372;2023-05-17T08:49:54;15.70;99.90
14995;DHT22;7593;49.006;8.372;2023-05-17T08:52:27;15.50;99.90
14995;DHT22;7593;49.006;8.372;2023-05-17T08:54:54;15.20;99.90
14995;DHT22;7593;49.006;8.372;2023-05-17T08:57:21;14.80;99.90
14995;DHT22;7593;49.006;8.372;2023-05-17T08:59:50;14.60;99.90
14995;DHT22;7593;49.006;8.372;2023-05-17T09:02:18;14.40;99.90
14995;DHT22;7593;49.006;8.372;2023-05-17T09:04:45;14.40;99.90
14995;DHT22;7593;49.006;8.372;2023-05-17T09:07:13;14.50;99.90
14995;DHT22;7593;49.006;8.372;2023-05-17T09:09:42;14.60;99.90
14995;DHT22;7593;49.006;8.372;2023-05-17T09:12:08;14.90;99.90
14995;DHT22;7593;49.006;8.372;2023-05-17T09:14:36;15.20;99.90
14995;DHT22;7593;49.006;8.372;2023-05-17T09:17:03;15.50;99.90
14995;DHT22;7593;49.006;8.372;2023-05-17T09:19:30;15.70;99.90
14995;DHT22;7593;49.006;8.372;2023-05-17T09:21:59;15.80;99.90
14995;DHT22;7593;49.006;8.372;2023-05-17T09:24:27;15.80;99.90
14995;DHT22;7593;49.006;8.372;2023-05-17T09:27:00;15.80;99.90
14995;DHT22;7593;49.006;8.372;2023-05-17T09:29:29;15.60;99.90
14995;DHT22;7593;49.006;8.372;2023-05-17T09:31:58;15.50;99.90
14995;DHT22;7593;49.006;8.372;2023-05-17T09:34:36;15.40;99.90
14995;DHT22;7593;49.006;8.372;2023-05-17T09:37:03;15.50;99.90
14995;DHT22;7593;49.006;8.372;2023-05-17T09:39:31;15.90;99.90
14995;DHT22;7593;49.006;8.372;2023-05-17T09:41:59;16.50;99.90
14995;DHT22;7593;49.006;8.372;2023-05-17T09:44:26;16.80;99.90
14995;DHT22;7593;49.006;8.372;2023-05-17T09:46:56;16.90;99.90
14995;DHT22;7593;49.006;8.372;2023-05-17T09:49:26;16.80;99.90
14995;DHT22;7593;49.006;8.372;2023-05-17T09:51:53;16.60;99.90
14995;DHT22;7593;49.006;8.372;2023-05-17T09:54:20;16.30;99.90
14995;DHT22;7593;49.006;8.372;2023-05-17T09:56:52;16.00;99.90
14995;DHT22;7593;49.006;8.372;2023-05-17T09:59:21;15.80;99.90
14995;DHT22;7593;49.006;8.372;2023-05-17T10:01:49;15.70;99.90
14995;DHT22;7593;49.006;8.372;2023-05-17T10:04:17;15.60;99.90
14995;DHT22;7593;49.006;8.372;2023-05-17T10:06:48;15.70;99.90
14995;DHT22;7593;49.006;8.372;2023-05-17T10:09:16;15.70;99.90
14995;DHT22;7593;49.006;8.372;2023-05-17T10:11:45;15.70;99.90
14995;DHT22;7593;49.006;8.372;2023-05-17T10:14:16;15.60;99.90
14995;DHT22;7593;49.006;8.372;2023-05-17T10:16:48;15.50;99.90
14995;DHT22;7593;49.006;8.372;2023-05-17T10:19:15;15.40;99.90
14995;DHT22;7593;49.006;8.372;2023-05-17T10:21:45;15.20;99.90
14995;DHT22;7593;49.006;8.372;2023-05-17T10:24:13;15.20;99.90
14995;DHT22;7593;49.006;8.372;2023-05-17T10:26:41;15.20;99.90
14995;DHT22;7593;49.006;8.372;2023-05-17T10:29:08;15.20;99.90
14995;DHT22;7593;49.006;8.372;2023-05-17T10:31:35;15.30;99.90
14995;DHT22;7593;49.006;8.372;2023-05-17T10:34:04;15.40;99.90
14995;DHT22;7593;49.006;8.372;2023-05-17T10:36:32;15.50;99.90
14995;DHT22;7593;49.006;8.372;2023-05-17T10:38:59;15.50;99.90
14995;DHT22;7593;49.006;8.372;2023-05-17T10:41:30;15.40;99.90
14995;DHT22;7593;49.006;8.372;2023-05-17T10:43:58;15.30;99.90
14995;DHT22;7593;49.006;8.372;2023-05-17T10:46:28;15.20;99.90
14995;DHT22;7593;49.006;8.372;2023-05-17T10:48:57;15.20;99.90
14995;DHT22;7593;49.006;8.372;2023-05-17T10:51:30;15.20;99.90
14995;DHT22;7593;49.006;8.372;2023-05-17T10:54:08;15.20;99.90
14995;DHT22;7593;49.006;8.372;2023-05-17T10:56:38;15.20;99.90
14995;DHT22;7593;49.006;8.372;2023-05-17T10:59:16;15.20;99.90
14995;DHT22;7593;49.006;8.372;2023-05-17T11:01:56;15.10;99.90
14995;DHT22;7593;49.006;8.372;2023-05-17T11:04:25;15.10;99.90
14995;DHT22;7593;49.006;8.372;2023-05-17T11:06:54;15.10;99.90
14995;DHT22;7593;49.006;8.372;2023-05-17T11:09:41;15.10;99.90
14995;DHT22;7593;49.006;8.372;2023-05-17T11:12:09;15.20;99.90
14995;DHT22;7593;49.006;8.372;2023-05-17T11:14:46;15.20;99.90
14995;DHT22;7593;49.006;8.372;2023-05-17T11:17:13;15.20;99.90
14995;DHT22;7593;49.006;8.372;2023-05-17T11:19:48;15.20;99.90
14995;DHT22;7593;49.006;8.372;2023-05-17T11:22:23;15.30;99.90
14995;DHT22;7593;49.006;8.372;2023-05-17T11:24:50;15.30;99.90
14995;DHT22;7593;49.006;8.372;2023-05-17T11:27:18;15.40;99.90
14995;DHT22;7593;49.006;8.372;2023-05-17T11:29:46;15.50;99.90
14995;DHT22;7593;49.006;8.372;2023-05-17T11:32:13;15.70;99.90
14995;DHT22;7593;49.006;8.372;2023-05-17T11:34:40;15.90;99.90
14995;DHT22;7593;49.006;8.372;2023-05-17T11:37:10;15.90;99.90
14995;DHT22;7593;49.006;8.372;2023-05-17T11:40:02;15.80;99.90
14995;DHT22;7593;49.006;8.372;2023-05-17T11:42:30;15.80;99.90
14995;DHT22;7593;49.006;8.372;2023-05-17T11:44:57;15.80;99.90
14995;DHT22;7593;49.006;8.372;2023-05-17T11:47:24;15.80;99.90
14995;DHT22;7593;49.006;8.372;2023-05-17T11:49:54;15.90;99.90
14995;DHT22;7593;49.006;8.372;2023-05-17T11:52:21;15.80;99.90
14995;DHT22;7593;49.006;8.372;2023-05-17T11:54:50;15.90;99.90
14995;DHT22;7593;49.006;8.372;2023-05-17T11:57:17;16.10;99.90
14995;DHT22;7593;49.006;8.372;2023-05-17T11:59:47;16.30;99.20
14995;DHT22;7593;49.006;8.372;2023-05-17T12:02:25;16.40;99.40
14995;DHT22;7593;49.006;8.372;2023-05-17T12:04:52;16.60;99.00
14995;DHT22;7593;49.006;8.372;2023-05-17T12:07:19;16.70;99.00
14995;DHT22;7593;49.006;8.372;2023-05-17T12:09:46;16.70;98.40
14995;DHT22;7593;49.006;8.372;2023-05-17T12:12:15;16.70;98.80
14995;DHT22;7593;49.006;8.372;2023-05-17T12:14:43;16.80;98.30
14995;DHT22;7593;49.006;8.372;2023-05-17T12:17:14;16.80;98.10
14995;DHT22;7593;49.006;8.372;2023-05-17T12:19:43;16.80;98.10
14995;DHT22;7593;49.006;8.372;2023-05-17T12:22:10;16.90;97.80
14995;DHT22;7593;49.006;8.372;2023-05-17T12:24:38;17.10;97.70
14995;DHT22;7593;49.006;8.372;2023-05-17T12:27:05;17.30;97.20
14995;DHT22;7593;49.006;8.372;2023-05-17T12:29:33;17.50;97.40
14995;DHT22;7593;49.006;8.372;2023-05-17T12:32:01;17.60;97.10
14995;DHT22;7593;49.006;8.372;2023-05-17T12:34:29;17.60;97.10
14995;DHT22;7593;49.006;8.372;2023-05-17T12:36:56;17.40;97.00
14995;DHT22;7593;49.006;8.372;2023-05-17T12:39:24;17.30;96.80
14995;DHT22;7593;49.006;8.372;2023-05-17T12:41:51;17.30;97.20
14995;DHT22;7593;49.006;8.372;2023-05-17T12:44:18;17.20;97.20
14995;DHT22;7593;49.006;8.372;2023-05-17T12:46:48;17.20;97.60
14995;DHT22;7593;49.006;8.372;2023-05-17T12:49:18;17.40;97.60
14995;DHT22;7593;49.006;8.372;2023-05-17T12:51:46;17.50;96.80
14995;DHT22;7593;49.006;8.372;2023-05-17T12:54:14;17.70;96.00
14995;DHT22;7593;49.006;8.372;2023-05-17T12:56:50;18.00;95.30
14995;DHT22;7593;49.006;8.372;2023-05-17T12:59:17;18.30;95.40
14995;DHT22;7593;49.006;8.372;2023-05-17T13:01:46;18.60;95.20
14995;DHT22;7593;49.006;8.372;2023-05-17T13:04:15;18.70;93.80
14995;DHT22;7593;49.006;8.372;2023-05-17T13:06:44;18.70;93.90
14995;DHT22;7593;49.006;8.372;2023-05-17T13:09:11;18.70;94.00
14995;DHT22;7593;49.006;8.372;2023-05-17T13:11:40;18.60;94.00
14995;DHT22;7593;49.006;8.372;2023-05-17T13:14:07;18.60;94.40
14995;DHT22;7593;49.006;8.372;2023-05-17T13:16:36;19.10;93.90
14995;DHT22;7593;49.006;8.372;2023-05-17T13:19:11;19.40;93.10
14995;DHT22;7593;49.006;8.372;2023-05-17T13:21:39;19.40;92.80
14995;DHT22;7593;49.006;8.372;2023-05-17T13:24:08;19.30;92.80
14995;DHT22;7593;49.006;8.372;2023-05-17T13:26:35;19.00;92.40
14995;DHT22;7593;49.006;8.372;2023-05-17T13:29:02;18.60;92.10
14995;DHT22;7593;49.006;8.372;2023-05-17T13:31:28;18.30;92.70
14995;DHT22;7593;49.006;8.372;2023-05-17T13:33:55;18.10;93.00
14995;DHT22;7593;49.006;8.372;2023-05-17T13:36:22;18.10;93.40
14995;DHT22;7593;49.006;8.372;2023-05-17T13:38:50;18.10;93.50
14995;DHT22;7593;49.006;8.372;2023-05-17T13:41:17;18.00;93.50
14995;DHT22;7593;49.006;8.372;2023-05-17T13:43:44;17.90;93.00
14995;DHT22;7593;49.006;8.372;2023-05-17T13:46:10;18.60;92.10
14995;DHT22;7593;49.006;8.372;2023-05-17T13:48:37;19.70;91.50
14995;DHT22;7593;49.006;8.372;2023-05-17T13:51:04;20.80;90.90
14995;DHT22;7593;49.006;8.372;2023-05-17T13:53:32;21.20;88.40
14995;DHT22;7593;49.006;8.372;2023-05-17T13:56:00;21.70;88.50
14995;DHT22;7593;49.006;8.372;2023-05-17T13:58:26;22.00;87.60
14995;DHT22;7593;49.006;8.372;2023-05-17T14:00:53;22.30;87.20
14995;DHT22;7593;49.006;8.372;2023-05-17T14:03:20;21.30;87.50
14995;DHT22;7593;49.006;8.372;2023-05-17T14:05:47;20.40;88.30
14995;DHT22;7593;49.006;8.372;2023-05-17T14:08:16;19.60;90.30
14995;DHT22;7593;49.006;8.372;2023-05-17T14:10:42;18.50;90.50
14995;DHT22;7593;49.006;8.372;2023-05-17T14:13:11;18.30;91.20
14995;DHT22;7593;49.006;8.372;2023-05-17T14:15:38;18.30;91.30
14995;DHT22;7593;49.006;8.372;2023-05-17T14:18:05;18.60;91.30
14995;DHT22;7593;49.006;8.372;2023-05-17T14:20:32;18.60;91.10
14995;DHT22;7593;49.006;8.372;2023-05-17T14:23:00;18.90;90.90
14995;DHT22;7593;49.006;8.372;2023-05-17T14:25:27;18.90;90.60
14995;DHT22;7593;49.006;8.372;2023-05-17T14:27:54;19.00;91.10
14995;DHT22;7593;49.006;8.372;2023-05-17T14:30:22;18.90;90.40
14995;DHT22;7593;49.006;8.372;2023-05-17T14:32:48;18.70;90.60
14995;DHT22;7593;49.006;8.372;2023-05-17T14:35:15;18.70;91.00
14995;DHT22;7593;49.006;8.372;2023-05-17T14:37:42;18.50;91.20
14995;DHT22;7593;49.006;8.372;2023-05-17T14:40:10;18.30;91.80
14995;DHT22;7593;49.006;8.372;2023-05-17T14:42:37;18.60;91.80
14995;DHT22;7593;49.006;8.372;2023-05-17T14:45:05;18.80;91.60
14995;DHT22;7593;49.006;8.372;2023-05-17T14:47:35;18.60;91.30
14995;DHT22;7593;49.006;8.372;2023-05-17T14:50:02;18.60;91.20
14995;DHT22;7593;49.006;8.372;2023-05-17T14:52:29;18.30;91.50
14995;DHT22;7593;49.006;8.372;2023-05-17T14:54:56;18.00;91.60
14995;DHT22;7593;49.006;8.372;2023-05-17T14:57:23;17.60;91.60
14995;DHT22;7593;49.006;8.372;2023-05-17T14:59:50;17.50;91.90
14995;DHT22;7593;49.006;8.372;2023-05-17T15:02:17;17.70;91.90
14995;DHT22;7593;49.006;8.372;2023-05-17T15:04:45;18.00;91.70
14995;DHT22;7593;49.006;8.372;2023-05-17T15:07:12;18.30;91.60
14995;DHT22;7593;49.006;8.372;2023-05-17T15:09:39;18.70;91.80
14995;DHT22;7593;49.006;8.372;2023-05-17T15:12:07;19.10;91.40
14995;DHT22;7593;49.006;8.372;2023-05-17T15:14:34;19.10;91.00
14995;DHT22;7593;49.006;8.372;2023-05-17T15:17:01;18.90;91.00
14995;DHT22;7593;49.006;8.372;2023-05-17T15:19:29;18.80;91.00
14995;DHT22;7593;49.006;8.372;2023-05-17T15:21:57;18.60;90.80
14995;DHT22;7593;49.006;8.372;2023-05-17T15:24:26;18.70;90.40
14995;DHT22;7593;49.006;8.372;2023-05-17T15:26:53;18.70;90.40
14995;DHT22;7593;49.006;8.372;2023-05-17T15:29:20;18.70;90.50
14995;DHT22;7593;49.006;8.372;2023-05-17T15:31:47;18.70;90.30
14995;DHT22;7593;49.006;8.372;2023-05-17T15:34:13;18.60;90.50
14995;DHT22;7593;49.006;8.372;2023-05-17T15:36:40;18.50;90.40
14995;DHT22;7593;49.006;8.372;2023-05-17T15:39:08;18.30;90.90
14995;DHT22;7593;49.006;8.372;2023-05-17T15:41:35;18.10;90.90
14995;DHT22;7593;49.006;8.372;2023-05-17T15:44:03;17.70;90.50
14995;DHT22;7593;49.006;8.372;2023-05-17T15:46:32;17.50;91.00
14995;DHT22;7593;49.006;8.372;2023-05-17T15:48:59;17.80;91.50
14995;DHT22;7593;49.006;8.372;2023-05-17T15:51:25;18.90;90.40
14995;DHT22;7593;49.006;8.372;2023-05-17T15:53:54;19.80;89.00
14995;DHT22;7593;49.006;8.372;2023-05-17T15:56:22;20.60;87.90